createdAt,value
2023-05-04T00:06:20.107Z,6.40
2023-05-04T00:09:52.116Z,7.03
2023-05-04T00:13:30.909Z,7.28
2023-05-04T00:17:14.193Z,7.00
2023-05-04T00:20:53.302Z,7.25
2023-05-04T00:24:19.452Z,7.20
2023-05-04T00:29:17.773Z,7.03
2023-05-04T00:31:59.680Z,7.18
2023-05-04T00:36:05.964Z,7.20
2023-05-04T00:40:02.077Z,8.63
2023-05-04T00:43:22.592Z,8.02
2023-05-04T00:46:42.525Z,7.40
2023-05-04T00:50:17.420Z,7.72
2023-05-04T00:54:01.043Z,7.55
2023-05-04T00:57:06.125Z,7.57
2023-05-04T01:00:28.227Z,6.57
2023-05-04T01:04:01.819Z,7.53
2023-05-04T01:07:48.523Z,7.75
2023-05-04T01:11:12.333Z,7.70
2023-05-04T01:18:32.328Z,8.98
2023-05-04T01:20:49.583Z,7.60
2023-05-04T01:21:51.417Z,8.07
2023-05-04T01:26:08.134Z,9.57
2023-05-04T01:33:16.940Z,8.45
2023-05-04T01:36:22.312Z,9.48
2023-05-04T01:39:56.873Z,9.02
2023-05-04T01:43:37.583Z,9.52
2023-05-04T01:47:41.921Z,9.57
2023-05-04T01:51:49.998Z,10.10
2023-05-04T01:55:52.372Z,9.23
2023-05-04T01:59:50.903Z,10.57
2023-05-04T02:03:19.080Z,10.52
2023-05-04T02:06:56.235Z,10.57
2023-05-04T02:14:11.820Z,10.77
2023-05-04T02:19:02.063Z,10.30
2023-05-04T02:24:41.444Z,9.43
2023-05-04T02:28:27.802Z,9.40
2023-05-04T02:31:46.693Z,9.65
2023-05-04T02:43:18.189Z,9.85
2023-05-04T02:50:29.249Z,11.32
2023-05-04T02:54:01.625Z,11.00
2023-05-04T03:01:35.035Z,11.55
2023-05-04T03:05:11.987Z,11.15
2023-05-04T03:08:21.567Z,11.65
2023-05-04T03:11:53.693Z,11.65
2023-05-04T03:15:33.494Z,11.73
2023-05-04T03:22:25.555Z,11.05
2023-05-04T03:33:26.409Z,11.75
2023-05-04T03:41:37.464Z,11.80
2023-05-04T03:49:30.283Z,12.25
2023-05-04T03:56:09.091Z,12.48
2023-05-04T03:59:39.328Z,12.60
2023-05-04T04:03:49.852Z,13.00
2023-05-04T04:06:47.716Z,12.07
2023-05-04T04:13:26.968Z,11.98
2023-05-04T04:17:05.498Z,13.20
2023-05-04T04:24:54.625Z,13.88
2023-05-04T04:29:18.324Z,12.75
2023-05-04T04:33:32.498Z,13.27
2023-05-04T04:43:51.713Z,13.82
2023-05-04T04:47:47.956Z,14.20
2023-05-04T04:52:29.310Z,13.50
2023-05-04T04:56:26.981Z,15.07
2023-05-04T05:07:38.394Z,13.32
2023-05-04T05:10:17.325Z,13.48
2023-05-04T05:11:09.421Z,13.90
2023-05-04T05:18:15.835Z,13.73
2023-05-04T05:22:17.979Z,13.20
2023-05-04T05:25:48.537Z,12.90
2023-05-04T05:32:15.532Z,13.57
2023-05-04T05:36:26.402Z,11.77
2023-05-04T05:38:45.517Z,13.40
2023-05-04T05:41:24.434Z,11.02
2023-05-04T05:43:57.820Z,11.77
2023-05-04T05:47:56.468Z,10.63
2023-05-04T05:52:05.562Z,10.52
2023-05-04T05:55:41.602Z,9.15
2023-05-04T06:10:17.616Z,6.03
2023-05-04T06:15:11.562Z,7.53
2023-05-04T06:22:42.442Z,6.75
2023-05-04T06:26:22.497Z,5.50
2023-05-04T06:29:58.836Z,6.15
2023-05-04T06:34:20.241Z,6.47
2023-05-04T06:38:00.638Z,6.43
2023-05-04T06:44:35.832Z,6.30
2023-05-04T06:51:43.298Z,7.18
2023-05-04T06:55:35.149Z,5.85
2023-05-04T06:59:30.740Z,5.72
2023-05-04T07:07:14.045Z,5.97
2023-05-04T07:21:54.853Z,5.45
2023-05-04T07:23:23.077Z,6.00
2023-05-04T07:26:27.261Z,5.18
2023-05-04T07:29:43.666Z,6.70
2023-05-04T07:41:08.054Z,5.60
2023-05-04T07:44:29.792Z,5.88
2023-05-04T07:55:22.239Z,5.43
2023-05-04T07:58:42.662Z,5.18
2023-05-04T08:05:49.149Z,5.78
2023-05-04T08:14:05.230Z,5.32
2023-05-04T08:22:17.169Z,5.00
2023-05-04T08:29:54.779Z,4.97
2023-05-04T08:34:01.638Z,4.25
2023-05-04T08:38:10.002Z,4.82
2023-05-04T08:45:03.344Z,4.30
2023-05-04T08:52:20.179Z,4.55
2023-05-04T09:00:09.182Z,4.40
2023-05-04T09:03:13.202Z,3.90
2023-05-04T09:07:02.393Z,4.10
2023-05-04T09:10:29.869Z,4.05
2023-05-04T09:13:36.984Z,3.97
2023-05-04T09:17:18.202Z,4.47
2023-05-04T09:24:17.792Z,4.07
2023-05-04T09:27:51.450Z,3.83
2023-05-04T09:38:36.829Z,3.28
2023-05-04T09:46:19.845Z,3.63
2023-05-04T09:50:41.734Z,3.95
2023-05-04T09:54:56.906Z,4.05
2023-05-04T10:02:29.150Z,3.92
2023-05-04T10:03:04.673Z,3.90
2023-05-04T10:07:00.963Z,4.18
2023-05-04T10:14:38.069Z,4.50
2023-05-04T10:18:40.622Z,4.38
2023-05-04T10:22:25.921Z,3.65
2023-05-04T10:26:25.138Z,4.32
2023-05-04T10:30:12.399Z,4.47
2023-05-04T10:33:41.737Z,3.78
2023-05-04T10:37:19.766Z,3.60
2023-05-04T10:40:39.022Z,4.80
2023-05-04T10:44:06.915Z,4.18
2023-05-04T10:51:35.612Z,4.43
2023-05-04T11:00:31.002Z,4.03
2023-05-04T11:02:57.704Z,3.85
2023-05-04T11:06:45.388Z,5.05
2023-05-04T11:10:39.065Z,5.07
2023-05-04T11:14:00.169Z,4.53
2023-05-04T11:22:59.562Z,5.07
2023-05-04T11:25:33.374Z,4.55
2023-05-04T11:28:01.950Z,4.72
2023-05-04T11:30:35.732Z,3.60
2023-05-04T11:33:13.037Z,4.57
2023-05-04T11:35:43.707Z,4.68
2023-05-04T11:38:13.338Z,3.92
2023-05-04T11:40:49.800Z,4.43
2023-05-04T11:43:18.955Z,4.63
2023-05-04T11:45:50.536Z,5.13
2023-05-04T11:48:19.086Z,4.55
2023-05-04T11:50:48.410Z,4.93
2023-05-04T11:53:21.637Z,5.28
2023-05-04T11:55:50.454Z,4.30
2023-05-04T11:58:25.714Z,4.78
2023-05-04T12:00:58.535Z,4.90
2023-05-04T12:03:43.290Z,5.22
2023-05-04T12:09:19.233Z,5.55
2023-05-04T12:11:56.323Z,4.28
2023-05-04T12:14:28.405Z,4.32
2023-05-04T12:17:08.035Z,4.38
2023-05-04T12:19:51.456Z,4.60
2023-05-04T12:22:27.037Z,5.10
2023-05-04T12:24:55.449Z,4.13
2023-05-04T12:27:23.774Z,4.35
2023-05-04T12:29:55.182Z,4.43
2023-05-04T12:32:23.520Z,3.60
2023-05-04T12:34:53.228Z,3.88
2023-05-04T12:37:23.790Z,3.83
2023-05-04T12:39:53.305Z,4.72
2023-05-04T12:42:21.621Z,4.80
2023-05-04T12:44:49.999Z,5.63
2023-05-04T12:47:20.807Z,4.57
2023-05-04T12:49:49.049Z,5.22
2023-05-04T12:52:19.684Z,5.43
2023-05-04T12:54:47.944Z,4.30
2023-05-04T12:57:16.509Z,4.75
2023-05-04T12:59:44.973Z,4.65
2023-05-04T13:02:13.322Z,5.50
2023-05-04T13:04:41.945Z,4.68
2023-05-04T13:07:10.764Z,4.55
2023-05-04T13:09:40.451Z,4.20
2023-05-04T13:12:09.070Z,5.05
2023-05-04T13:14:39.951Z,4.20
2023-05-04T13:17:08.799Z,4.22
2023-05-04T13:19:37.306Z,4.25
2023-05-04T13:22:05.970Z,4.07
2023-05-04T13:24:34.312Z,4.10
2023-05-04T13:27:04.052Z,4.15
2023-05-04T13:29:32.472Z,3.70
2023-05-04T13:32:00.921Z,3.92
2023-05-04T13:34:29.357Z,3.55
2023-05-04T13:36:57.682Z,4.18
2023-05-04T13:39:27.952Z,4.20
2023-05-04T13:41:56.517Z,4.40
2023-05-04T13:44:26.159Z,4.45
2023-05-04T13:46:54.563Z,4.85
2023-05-04T13:49:22.813Z,5.07
2023-05-04T13:51:51.043Z,4.53
2023-05-04T13:54:19.357Z,3.47
2023-05-04T13:56:48.564Z,4.03
2023-05-04T13:59:16.928Z,4.07
2023-05-04T14:01:46.591Z,3.58
2023-05-04T14:04:14.863Z,4.85
2023-05-04T14:06:43.344Z,4.07
2023-05-04T14:09:11.693Z,3.35
2023-05-04T14:11:40.010Z,3.50
2023-05-04T14:14:08.769Z,2.88
2023-05-04T14:16:37.661Z,2.15
2023-05-04T14:19:07.448Z,2.47
2023-05-04T14:21:37.022Z,1.67
2023-05-04T14:24:05.663Z,2.10
2023-05-04T14:26:34.236Z,2.58
2023-05-04T14:29:02.660Z,2.40
2023-05-04T14:31:31.234Z,2.35
2023-05-04T14:33:59.659Z,1.52
2023-05-04T14:36:29.404Z,1.60
2023-05-04T14:39:00.807Z,1.88
2023-05-04T14:41:33.579Z,1.88
2023-05-04T14:44:02.100Z,2.05
2023-05-04T14:46:30.990Z,1.95
2023-05-04T14:49:00.163Z,2.15
2023-05-04T14:51:32.335Z,1.85
2023-05-04T14:54:01.099Z,1.80
2023-05-04T14:56:29.402Z,1.92
2023-05-04T14:58:57.905Z,1.45
2023-05-04T15:03:03.689Z,1.25
2023-05-04T15:06:46.993Z,1.10
2023-05-04T15:18:11.180Z,1.33
2023-05-04T15:21:29.718Z,1.65
2023-05-04T15:24:30.817Z,1.95
2023-05-04T15:32:30.441Z,1.58
2023-05-04T15:35:53.715Z,1.42
2023-05-04T15:49:47.919Z,1.20
2023-05-04T15:53:32.477Z,1.55
2023-05-04T15:56:27.241Z,1.45
2023-05-04T16:05:48.561Z,1.60
2023-05-04T16:06:54.325Z,1.10
2023-05-04T16:10:42.935Z,1.20
2023-05-04T16:17:31.961Z,1.02
2023-05-04T16:28:03.749Z,1.05
2023-05-04T16:34:36.449Z,0.70
2023-05-04T16:38:29.091Z,0.90
2023-05-04T16:41:49.053Z,0.90
2023-05-04T16:46:02.349Z,0.82
2023-05-04T16:58:00.038Z,2.72
2023-05-04T17:02:07.984Z,1.23
2023-05-04T17:05:46.309Z,1.33
2023-05-04T17:09:20.490Z,1.05
2023-05-04T17:12:59.210Z,0.90
2023-05-04T17:19:19.167Z,0.70
2023-05-04T17:27:04.734Z,0.80
2023-05-04T17:30:29.880Z,1.10
2023-05-04T17:33:55.599Z,0.95
2023-05-04T17:37:24.387Z,1.08
2023-05-04T17:44:32.965Z,1.30
2023-05-04T17:48:05.102Z,1.40
2023-05-04T17:51:56.162Z,1.23
2023-05-04T17:55:36.599Z,1.40
2023-05-04T18:03:03.285Z,1.90
2023-05-04T18:10:57.763Z,1.77
2023-05-04T18:13:25.036Z,1.83
2023-05-04T18:17:00.790Z,2.20
2023-05-04T18:20:25.423Z,1.90
2023-05-04T18:26:28.912Z,2.40
2023-05-04T18:34:45.274Z,2.70
2023-05-04T18:38:42.970Z,2.00
2023-05-04T18:50:06.342Z,2.95
2023-05-04T18:54:34.194Z,3.42
2023-05-04T19:01:10.694Z,3.88
2023-05-04T19:09:03.020Z,4.05
2023-05-04T19:12:50.338Z,4.22
2023-05-04T19:24:31.129Z,4.78
2023-05-04T19:32:24.144Z,4.78
2023-05-04T19:35:52.922Z,5.20
2023-05-04T19:39:08.692Z,5.47
2023-05-04T19:46:31.126Z,5.90
2023-05-04T19:50:41.950Z,5.50
2023-05-04T19:54:02.399Z,6.00
2023-05-04T19:57:46.055Z,6.82
2023-05-04T20:01:01.242Z,7.60
2023-05-04T20:07:33.607Z,8.57
2023-05-04T20:09:11.821Z,8.43
2023-05-04T20:13:16.303Z,9.75
2023-05-04T20:24:14.028Z,10.48
2023-05-04T20:26:20.564Z,9.57
2023-05-04T20:35:23.901Z,11.68
2023-05-04T20:44:12.338Z,13.07
2023-05-04T20:48:27.606Z,13.00
2023-05-04T20:52:11.836Z,13.13
2023-05-04T20:55:26.940Z,14.93
2023-05-04T21:02:46.087Z,15.52
2023-05-04T21:06:24.370Z,17.55
2023-05-04T21:10:42.973Z,15.80
2023-05-04T21:14:09.655Z,17.27
2023-05-04T21:17:49.077Z,17.38
2023-05-04T21:21:23.457Z,16.33
2023-05-04T21:40:44.207Z,18.17
2023-05-04T21:47:06.597Z,18.10
2023-05-04T21:50:24.071Z,17.95
2023-05-04T21:57:58.767Z,13.93
2023-05-04T22:06:12.085Z,5.80
2023-05-04T22:09:37.702Z,3.67
2023-05-04T22:13:22.379Z,4.43
2023-05-04T22:16:34.217Z,3.78
2023-05-04T22:20:40.638Z,4.53
2023-05-04T22:32:32.201Z,5.13
2023-05-04T22:36:05.650Z,5.57
2023-05-04T22:42:27.159Z,5.05
2023-05-04T22:46:55.145Z,5.13
2023-05-04T22:50:24.687Z,5.07
2023-05-04T22:54:13.691Z,5.70
2023-05-04T22:58:39.324Z,4.68
2023-05-04T23:02:44.745Z,5.05
2023-05-04T23:06:57.965Z,5.65
2023-05-04T23:10:43.277Z,5.28
2023-05-04T23:17:45.820Z,7.63
2023-05-04T23:25:07.088Z,6.10
2023-05-04T23:28:50.705Z,7.13
2023-05-04T23:32:50.334Z,8.18
2023-05-04T23:40:41.644Z,7.15
2023-05-04T23:44:16.771Z,8.10
2023-05-04T23:48:10.624Z,8.57
2023-05-04T23:52:26.960Z,8.93
2023-05-04T23:58:01.239Z,12.55
